Latest Weather Observations for Rhyll

IDV60801

Issued at 9:32 pm EST Saturday 27 August 2016 (issued every 30 minutes, with the page automatically refreshed every 10 minutes)

About weather observations | Map of weather stations | Latest weather observations for VIC | Other Formats
Station Details ID: 086373 Name: RHYLL Lat: -38.46 Lon: 145.31 Height: 13.4 m
Data from the previous 72 hours. | See also: Recent months at Rhyll
Date/Time
EST
Temp
°C
App
Temp
°C
Dew
Point
°C
Rel
Hum
%
Delta-T
°C
Wind Press
QNH
hPa
Press
MSL
hPa
Rain since
9am
mm
Dir  Spd
km/h
Gust
km/h
Spd
kts
Gust
kts
27/09:30pm 12.2 7.0 7.3 72 2.4 NNW 24 33 13 18 1018.6 1018.6 0.0
27/09:00pm 12.4 7.2 7.1 70 2.5 NNW 24 35 13 19 1019.0 1019.0 0.0
27/08:30pm 12.5 7.5 6.5 67 2.9 NNW 22 37 12 20 1018.7 1018.7 0.0
27/08:00pm 12.5 7.7 7.2 70 2.6 NNW 22 33 12 18 1018.5 1018.5 0.0
27/07:30pm 12.4 7.7 7.7 73 2.3 NNW 22 35 12 19 1018.3 1018.3 0.0
27/07:00pm 12.6 9.5 7.1 69 2.6 NW 13 22 7 12 1018.3 1018.3 0.0
27/06:30pm 12.7 8.5 7.4 70 2.6 NW 19 32 10 17 1018.0 1018.0 0.0
27/06:00pm 12.7 7.9 7.4 70 2.6 NNW 22 33 12 18 1017.5 1017.5 0.0
27/05:30pm 12.8 9.5 6.6 66 3.0 NW 13 22 7 12 1017.7 1017.7 0.0
27/05:00pm 13.0 10.1 6.4 64 3.1 NW 11 19 6 10 1017.5 1017.5 0.0
27/04:30pm 13.2 10.7 6.5 64 3.2 WNW 9 17 5 9 1017.6 1017.6 0.0
27/04:00pm 13.1 11.0 6.5 64 3.1 WNW 7 20 4 11 1017.8 1017.8 0.0
27/03:30pm 13.0 8.6 7.5 69 2.7 NNW 20 28 11 15 1017.6 1017.6 0.0
27/03:00pm 13.6 9.7 6.9 64 3.2 NNW 17 28 9 15 1018.0 1018.0 0.0
27/02:30pm 12.8 8.7 6.4 65 3.0 NNW 17 24 9 13 1018.6 1018.6 0.0
27/02:00pm 12.9 9.7 5.3 60 3.5 WNW 11 22 6 12 1019.0 1019.0 0.0
27/01:30pm 13.1 9.7 5.8 61 3.4 WNW 13 26 7 14 1019.2 1019.2 0.0
27/01:00pm 12.3 8.4 5.5 63 3.2 NW 15 28 8 15 1019.4 1019.4 0.0
27/12:30pm 12.9 8.6 5.3 60 3.5 NW 17 28 9 15 1019.9 1019.9 0.0
27/12:00pm 12.8 8.1 5.0 59 3.6 NW 19 32 10 17 1020.4 1020.4 0.0
27/11:30am 12.9 9.2 6.3 64 3.1 NW 15 30 8 16 1020.9 1020.9 0.0
27/11:00am 12.5 8.9 5.2 61 3.4 NW 13 28 7 15 1021.0 1021.0 0.0
27/10:30am 12.4 8.1 5.3 62 3.3 NW 17 30 9 16 1021.1 1021.1 0.0
27/10:00am 11.9 7.4 6.2 68 2.7 NW 19 30 10 16 1021.0 1021.0 0.0
27/09:30am 10.9 6.4 5.9 71 2.3 NW 19 30 10 16 1021.1 1021.1 0.0
27/09:00am 10.6 5.6 6.4 75 2.0 NNW 22 33 12 18 1021.1 1021.1 0.0
27/08:30am 10.4 7.1 6.5 77 1.8 NW 13 22 7 12 1021.4 1021.4 0.0
27/08:00am 10.2 6.1 6.4 77 1.8 NW 17 26 9 14 1021.4 1021.4 0.0
27/07:30am 9.9 7.0 6.3 78 1.7 NW 11 20 6 11 1021.4 1021.4 0.0
27/07:00am 9.5 6.9 5.9 78 1.6 NW 9 19 5 10 1021.2 1021.2 0.0
27/06:30am 9.7 7.1 5.9 77 1.7 NW 9 17 5 9 1021.0 1021.0 0.0
27/06:00am 9.4 7.2 6.1 80 1.5 NW 7 13 4 7 1020.7 1020.7 0.0
27/05:30am 9.6 7.0 6.3 80 1.5 NW 9 17 5 9 1020.5 1020.5 0.0
27/05:00am 9.8 6.5 6.5 80 1.5 NW 13 24 7 13 1020.2 1020.2 0.0
27/04:30am 9.7 6.9 6.8 82 1.4 NW 11 20 6 11 1020.0 1020.0 0.0
27/04:00am 9.3 7.3 7.1 86 1.0 NW 7 15 4 8 1020.1 1020.1 0.0
27/03:30am 9.0 6.6 6.8 86 1.0 NW 9 17 5 9 1020.0 1020.0 0.0
27/03:00am 9.0 7.0 7.0 87 0.9 NW 7 13 4 7 1020.3 1020.3 0.0
27/02:30am 8.8 7.3 6.8 87 0.9 NW 4 9 2 5 1020.5 1020.5 0.0
27/02:00am 9.0 6.9 6.8 86 1.0 NW 7 13 4 7 1020.7 1020.7 0.0
27/01:30am 9.0 7.1 6.6 85 1.1 NW 6 11 3 6 1020.8 1020.8 0.0
27/01:00am 9.2 7.3 6.6 84 1.2 NW 6 11 3 6 1020.9 1020.9 0.0
27/12:30am 9.5 7.4 6.8 83 1.3 NW 7 13 4 7 1021.3 1021.3 0.0
27/12:00am 9.8 8.0 7.1 83 1.3 NW 6 13 3 7 1021.3 1021.3 0.0
 
Date/Time
EST
Temp
°C
App
Temp
°C
Dew
Point
°C
Rel
Hum
%
Delta-T
°C
Wind Press
QNH
hPa
Press
MSL
hPa
Rain since
9am
mm
Dir  Spd
km/h
Gust
km/h
Spd
kts
Gust
kts
26/11:30pm 10.2 8.4 7.1 81 1.5 NW 6 11 3 6 1021.4 1021.4 0.0
26/11:00pm 10.5 8.7 7.0 79 1.7 WNW 6 11 3 6 1021.4 1021.4 0.0
26/10:30pm 10.7 8.3 7.0 78 1.8 WNW 9 19 5 10 1021.5 1021.5 0.0
26/10:00pm 11.0 8.6 7.1 77 1.9 WNW 9 17 5 9 1021.2 1021.2 0.0
26/09:30pm 11.3 9.3 7.2 76 2.0 WNW 7 15 4 8 1021.2 1021.2 0.0
26/09:00pm 11.4 9.0 7.1 75 2.0 WNW 9 17 5 9 1021.0 1021.0 0.0
26/08:30pm 11.5 8.3 7.0 74 2.1 W 13 20 7 11 1021.0 1021.0 0.0
26/08:00pm 11.5 9.1 7.0 74 2.1 WNW 9 19 5 10 1020.9 1020.9 0.0
26/07:30pm 11.3 8.9 6.8 74 2.1 NW 9 19 5 10 1020.9 1020.9 0.0
26/07:00pm 11.2 9.2 7.1 76 1.9 NW 7 15 4 8 1020.8 1020.8 0.0
26/06:30pm 11.3 9.3 7.2 76 2.0 NW 7 13 4 7 1020.6 1020.6 0.0
26/06:00pm 11.1 9.2 6.6 74 2.1 WNW 6 13 3 7 1020.4 1020.4 0.0
26/05:30pm 11.7 9.6 6.6 71 2.4 WNW 7 17 4 9 1020.2 1020.2 0.0
26/05:00pm 11.7 9.1 6.2 69 2.6 WNW 9 17 5 9 1020.2 1020.2 0.0
26/04:30pm 11.8 9.9 6.5 70 2.5 NW 6 15 3 8 1020.0 1020.0 0.0
26/04:00pm 11.9 9.3 6.2 68 2.7 WNW 9 17 5 9 1019.8 1019.8 0.0
26/03:30pm 12.3 9.9 6.8 69 2.6 NW 9 15 5 8 1019.7 1019.7 0.0
26/03:00pm 12.6 10.0 6.2 65 3.0 WNW 9 17 5 9 1019.7 1019.7 0.0
26/02:30pm 13.0 10.9 6.8 66 3.0 NW 7 17 4 9 1019.8 1019.8 0.0
26/02:00pm 12.6 9.4 5.1 60 3.5 WNW 11 20 6 11 1020.0 1020.0 0.0
26/01:30pm 12.2 9.6 6.3 67 2.8 WNW 9 17 5 9 1020.2 1020.2 0.0
26/01:00pm 12.8 9.4 5.9 63 3.2 W 13 22 7 12 1020.4 1020.4 0.0
26/12:30pm 12.2 9.1 5.4 63 3.2 W 11 24 6 13 1020.8 1020.8 0.0
26/12:00pm 11.5 8.4 7.4 76 2.0 WSW 13 26 7 14 1021.1 1021.1 0.0
26/11:30am 12.7 9.2 7.2 69 2.7 W 15 28 8 15 1021.1 1021.1 0.0
26/11:00am 11.5 8.3 7.0 74 2.1 W 13 22 7 12 1021.2 1021.2 0.0
26/10:30am 11.4 7.9 5.5 67 2.7 W 13 24 7 13 1021.2 1021.2 0.0
26/10:00am 11.0 9.1 7.5 79 1.7 WNW 7 13 4 7 1021.1 1021.1 0.0
26/09:30am 10.1 8.5 8.2 88 0.9 WNW 6 9 3 5 1021.4 1021.4 0.0
26/09:00am 9.8 8.2 7.9 88 0.9 WNW 6 13 3 7 1021.3 1021.3 3.4
26/08:30am 9.5 7.3 7.9 90 0.8 W 9 17 5 9 1021.2 1021.2 3.4
26/08:00am 9.1 7.5 7.9 92 0.6 W 6 9 3 5 1021.0 1021.0 3.4
26/07:30am 8.9 7.4 8.3 96 0.3 WNW 6 11 3 6 1020.7 1020.7 3.4
26/07:00am 8.7 6.2 8.1 96 0.3 W 11 20 6 11 1020.3 1020.3 3.4
26/06:30am 8.4 6.6 7.3 93 0.5 WNW 6 11 3 6 1020.0 1020.0 3.4
26/06:00am 8.5 7.2 7.7 95 0.4 WNW 4 7 2 4 1019.8 1019.8 3.4
26/05:30am 8.3 6.4 7.7 96 0.3 W 7 15 4 8 1019.7 1019.7 3.4
26/05:00am 8.0 6.6 7.2 95 0.4 W 4 6 2 3 1019.3 1019.3 3.2
26/04:30am 8.0 6.6 7.2 95 0.4 W 4 6 2 3 1019.1 1019.1 3.2
26/04:00am 8.2 6.2 7.1 93 0.5 WSW 7 13 4 7 1019.1 1019.1 3.2
26/03:30am 8.6 6.3 5.0 78 1.6 W 6 11 3 6 1019.0 1019.0 2.8
26/03:00am 9.2 6.8 4.2 71 2.2 WSW 6 9 3 5 1018.8 1018.8 2.8
26/02:30am 8.8 6.4 4.4 74 1.9 WSW 6 7 3 4 1018.9 1018.9 2.8
26/02:00am 8.7 6.2 3.7 71 2.2 SW 6 9 3 5 1019.0 1019.0 2.8
26/01:30am 9.3 6.6 3.7 68 2.4 SW 7 11 4 6 1019.1 1019.1 2.8
26/01:00am 9.2 6.1 3.8 69 2.3 SW 9 13 5 7 1019.1 1019.1 2.8
26/12:30am 9.3 6.2 3.5 67 2.5 SW 9 15 5 8 1019.1 1019.1 2.8
26/12:00am 9.5 6.1 3.9 68 2.4 SW 11 17 6 9 1018.9 1018.9 2.8
 
Date/Time
EST
Temp
°C
App
Temp
°C
Dew
Point
°C
Rel
Hum
%
Delta-T
°C
Wind Press
QNH
hPa
Press
MSL
hPa
Rain since
9am
mm
Dir  Spd
km/h
Gust
km/h
Spd
kts
Gust
kts
25/11:30pm 9.9 6.3 4.9 71 2.2 SW 13 20 7 11 1018.9 1018.9 2.8
25/11:00pm 10.1 6.2 5.3 72 2.2 SW 15 24 8 13 1018.8 1018.8 2.8
25/10:30pm 10.2 7.0 6.7 79 1.6 SW 13 20 7 11 1018.6 1018.6 2.8
25/10:00pm 9.5 7.2 7.4 87 1.0 WSW 9 15 5 8 1018.6 1018.6 2.4
25/09:30pm 9.9 7.5 7.0 82 1.4 SW 9 13 5 7 1018.5 1018.5 2.0
25/09:00pm 9.5 7.5 7.1 85 1.1 SW 7 11 4 6 1018.3 1018.3 2.0
25/08:30pm 9.5 6.7 7.1 85 1.1 SW 11 17 6 9 1018.2 1018.2 2.0
25/08:00pm 8.9 7.0 7.4 90 0.7 WSW 7 9 4 5 1018.0 1018.0 2.0
25/07:30pm 8.9 6.9 7.0 88 0.9 WSW 7 15 4 8 1017.7 1017.7 1.0
25/07:00pm 9.3 6.2 7.3 87 0.9 WSW 13 24 7 13 1017.3 1017.3 1.0
25/06:30pm 10.5 7.6 6.5 76 1.9 SW 11 17 6 9 1016.9 1016.9 0.6
25/06:00pm 10.7 8.3 7.2 79 1.7 SSW 9 15 5 8 1016.4 1016.4 0.6
25/05:30pm 10.9 7.2 6.1 72 2.2 SW 15 22 8 12 1016.1 1016.1 0.6
25/05:00pm 11.4 7.4 6.5 72 2.3 SW 17 24 9 13 1015.7 1015.7 0.6
25/04:30pm 11.6 7.5 6.3 70 2.5 SW 17 26 9 14 1015.5 1015.5 0.6
25/04:00pm 11.7 9.0 7.4 75 2.1 SW 11 17 6 9 1015.4 1015.4 0.6
25/03:30pm 10.6 7.1 7.3 80 1.6 SW 15 30 8 16 1015.5 1015.5 0.6
25/03:00pm 12.8 9.5 7.9 72 2.4 SSW 15 24 8 13 1015.1 1015.1 0.4
25/02:30pm 11.7 8.2 7.4 75 2.1 SW 15 28 8 15 1015.0 1015.0 0.4
25/02:00pm 12.2 7.8 6.7 69 2.6 SW 19 28 10 15 1014.7 1014.7 0.4
25/01:30pm 12.4 8.4 6.7 68 2.7 SW 17 28 9 15 1014.6 1014.6 0.4
25/01:00pm 11.9 7.5 6.4 69 2.6 SW 19 30 10 16 1014.6 1014.6 0.4
25/12:30pm 11.6 7.0 5.7 67 2.7 SSW 19 30 10 16 1014.7 1014.7 0.4
25/12:00pm 10.8 7.1 8.0 83 1.4 SW 17 24 9 13 1014.8 1014.8 0.4
25/11:30am 11.9 8.5 6.0 67 2.8 SSW 13 28 7 15 1014.7 1014.7 0.2
25/11:00am 11.9 7.9 6.6 70 2.5 SSW 17 26 9 14 1014.7 1014.7 0.2
25/10:30am 11.5 7.7 6.0 69 2.6 SSW 15 28 8 15 1014.4 1014.4 0.2
25/10:00am 11.1 7.0 6.0 71 2.4 SW 17 30 9 16 1014.2 1014.2 0.2
25/09:30am 8.3 5.8 4.7 78 1.6 WSW 7 13 4 7 1014.1 1014.1 0.2
25/09:00am 11.6 8.9 5.7 67 2.7 SW 9 19 5 10 1013.9 1013.9 2.0
25/08:30am 9.2 7.4 7.0 86 1.0 WNW 6 9 3 5 1013.9 1013.9 2.0
25/08:00am 8.4 6.2 6.0 85 1.1 SW 7 15 4 8 1013.6 1013.6 2.0
25/07:30am 7.1 4.9 6.2 94 0.4 W 7 13 4 7 1013.2 1013.2 1.6
25/07:00am 7.3 4.0 6.4 94 0.4 W 13 24 7 13 1013.1 1013.1 1.6
25/06:30am 8.1 6.3 7.0 93 0.5 WSW 6 9 3 5 1012.9 1012.9 1.0
25/06:00am 7.7 5.5 6.3 91 0.6 WSW 7 17 4 9 1012.4 1012.4 0.6
25/05:30am 7.6 3.4 5.9 89 0.8 SSW 17 32 9 17 1012.3 1012.3 0.6
25/05:00am 8.1 5.6 5.0 81 1.4 W 7 11 4 6 1012.0 1012.0 0.0
25/04:30am 8.8 6.5 5.7 81 1.4 WSW 7 11 4 6 1012.0 1012.0 0.0
25/04:00am 8.1 5.8 5.6 84 1.1 W 7 11 4 6 1012.0 1012.0 0.0
25/03:30am 8.1 5.7 5.4 83 1.2 WSW 7 9 4 5 1012.0 1012.0 0.0
25/03:00am 8.3 5.5 5.2 81 1.4 W 9 13 5 7 1012.1 1012.1 0.0
25/02:30am 8.1 5.4 5.4 83 1.2 WSW 9 17 5 9 1012.2 1012.2 0.0
25/02:00am 8.3 5.6 5.4 82 1.3 W 9 11 5 6 1012.4 1012.4 0.0
25/01:30am 8.3 5.6 5.4 82 1.3 W 9 11 5 6 1012.6 1012.6 0.0
25/01:00am 8.2 5.7 5.0 80 1.4 WSW 7 11 4 6 1012.7 1012.7 0.0
25/12:30am 8.1 5.4 5.4 83 1.2 W 9 15 5 8 1012.8 1012.8 0.0
25/12:00am 8.2 5.9 5.5 83 1.2 W 7 13 4 7 1013.0 1013.0 0.0
 
Date/Time
EST
Temp
°C
App
Temp
°C
Dew
Point
°C
Rel
Hum
%
Delta-T
°C
Wind Press
QNH
hPa
Press
MSL
hPa
Rain since
9am
mm
Dir  Spd
km/h
Gust
km/h
Spd
kts
Gust
kts
24/11:30pm 9.0 6.4 4.0 71 2.2 WSW 7 13 4 7 1013.1 1013.1 0.0
24/11:00pm 8.7 6.5 5.1 78 1.6 WSW 6 11 3 6 1013.4 1013.4 0.0
24/10:30pm 8.7 6.5 5.1 78 1.6 WSW 6 9 3 5 1013.5 1013.5 0.0
24/10:00pm 8.8 6.5 5.7 81 1.4 SW 7 9 4 5 1013.7 1013.7 0.0

Other Formats:

Comma delimited format used in spreadsheet applications
http://www.bom.gov.au/fwo/IDV60801/IDV60801.94892.axf

JavaScript Object Notation format (JSON) in row-major order
http://www.bom.gov.au/fwo/IDV60801/IDV60801.94892.json